Time;durP1;ratioP1;P1;durP2;ratioP2;P2;SDS_P1;SDS_P2;PMS_P1;PMS_P2;Temp;Humidity;BMP_temperature;BMP_pressure;BME280_temperature;BME280_humidity;BME280_pressure;Samples;Min_cycle;Max_cycle;Signal;HPM_P1;HPM_P2
2021/09/10 00:00:05;;;;;;;19.90;16.98;;;;;;;19.93;89.40;101118.53;5073612;28;20024;-36
2021/09/10 00:02:30;;;;;;;21.65;16.42;;;;;;;19.97;89.05;101122.34;5073829;28;20420;-36
2021/09/10 00:04:56;;;;;;;;;;;;;;;20.07;87.17;101132.41;5073406;28;20027;-36
2021/09/10 00:07:21;;;;;;;22.83;16.93;;;;;;;19.78;89.92;101108.47;5073414;28;19908;-36
2021/09/10 00:09:46;;;;;;;;;;;;;;;20.03;87.27;101129.41;5074322;28;20271;-36
2021/09/10 00:12:11;;;;;;;22.80;15.47;;;;;;;19.86;89.71;101126.25;5074182;28;19915;-36
2021/09/10 00:14:37;;;;;;;;;;;;;;;19.99;87.06;101125.59;5073594;28;20275;-36
2021/09/10 00:17:02;;;;;;;23.17;15.40;;;;;;;19.85;89.30;101123.78;5073066;28;20311;-36
2021/09/10 00:19:28;;;;;;;21.98;15.45;;;;;;;19.69;89.98;101112.13;5073102;28;20060;-36
2021/09/10 00:21:53;;;;;;;;;;;;;;;19.91;87.39;101123.50;5073712;28;20016;-36
2021/09/10 00:24:18;;;;;;;22.88;15.57;;;;;;;19.80;89.85;101121.91;5073604;28;19912;-36
2021/09/10 00:26:43;;;;;;;;;;;;;;;19.88;87.86;101125.97;5074170;28;20103;-36
2021/09/10 00:29:09;;;;;;;24.02;15.02;;;;;;;19.73;90.23;101121.44;5072938;28;19936;-36
2021/09/10 00:31:34;;;;;;;20.83;14.60;;;;;;;19.72;90.31;101123.34;5073529;28;20028;-36
2021/09/10 00:33:59;;;;;;;;;;;;;;;19.87;88.07;101121.59;5073869;28;20028;-36
2021/09/10 00:36:25;;;;;;;22.08;14.90;;;;;;;19.72;90.40;101120.59;5073153;28;19963;-36
2021/09/10 00:38:50;;;;;;;;;;;;;;;19.84;87.87;101122.16;5073450;28;20036;-36
2021/09/10 00:41:15;;;;;;;23.13;15.47;;;;;;;19.72;89.97;101123.34;5073136;28;19904;-36
2021/09/10 00:43:40;;;;;;;;;;;;;;;19.86;88.28;101126.25;5073336;28;20296;-36
2021/09/10 00:46:06;;;;;;;22.95;14.95;;;;;;;19.64;90.58;101101.19;5073061;28;19997;-36
2021/09/10 00:48:32;;;;;;;22.27;15.63;;;;;;;19.70;91.02;101124.72;5071465;28;20024;-36
2021/09/10 00:50:57;;;;;;;20.10;14.90;;;;;;;19.60;91.25;101109.16;5073034;28;20025;-36
2021/09/10 00:53:23;;;;;;;;;;;;;;;19.77;88.94;101115.09;5073081;28;20028;-36
2021/09/10 00:55:48;;;;;;;18.35;13.10;;;;;;;19.67;90.68;101120.66;5073489;28;19919;-36
2021/09/10 00:58:14;;;;;;;;;;;;;;;19.76;88.90;101121.69;5073833;28;20111;-36
2021/09/10 01:00:40;;;;;;;18.77;13.90;;;;;;;19.62;90.95;101120.69;5073563;28;19923;-36
2021/09/10 01:03:06;;;;;;;18.02;13.63;;;;;;;19.56;91.07;101119.03;5072841;28;20032;-36
2021/09/10 01:05:32;;;;;;;18.00;14.23;;;;;;;19.45;91.49;101101.81;5074026;28;20028;-36
2021/09/10 01:07:57;;;;;;;;;;;;;;;19.60;89.65;101111.91;5077994;28;20116;-36
2021/09/10 01:10:23;;;;;;;16.17;12.50;;;;;;;19.46;91.93;101116.34;5075431;28;20340;-36
2021/09/10 01:12:50;;;;;;;17.10;13.35;;;;;;;19.44;91.73;101115.81;5076493;28;20021;-36
2021/09/10 01:15:17;;;;;;;18.58;12.82;;;;;;;19.47;91.78;101115.25;5076867;28;20103;-36
2021/09/10 01:17:42;;;;;;;18.70;12.30;;;;;;;19.45;91.50;101118.28;5077223;28;20406;-36
2021/09/10 01:20:08;;;;;;;;;;;;;;;19.55;90.08;101112.72;5076992;28;20111;-36
2021/09/10 01:22:35;;;;;;;12.40;10.88;;;;;;;19.45;91.33;101114.72;5076811;28;19943;-36
2021/09/10 01:25:15;;;;;;;17.10;11.80;;;;;;;19.45;91.64;101106.50;5074914;28;20071;-36
2021/09/10 01:27:54;;;;;;;13.70;11.40;;;;;;;19.45;91.81;101110.03;5076738;28;20028;-36
2021/09/10 01:30:26;;;;;;;14.65;11.15;;;;;;;19.38;91.75;101092.28;5076556;28;20478;-36
2021/09/10 01:32:52;;;;;;;14.88;11.90;;;;;;;19.32;91.75;101076.94;5076333;28;20020;-37
2021/09/10 01:35:17;;;;;;;;;;;;;;;19.53;90.06;101105.91;5076382;28;20090;-36
2021/09/10 01:37:43;;;;;;;13.38;10.93;;;;;;;19.38;91.63;101101.34;5076472;28;19904;-36
2021/09/10 01:40:09;;;;;;;12.90;10.57;;;;;;;19.38;91.84;101103.25;5075730;28;20512;-36
2021/09/10 01:42:35;;;;;;;13.02;11.25;;;;;;;19.31;91.82;101103.56;5076477;28;20020;-36
2021/09/10 01:45:00;;;;;;;;;;;;;;;19.46;90.15;101097.16;5076802;28;20475;-36
2021/09/10 01:47:26;;;;;;;12.68;10.48;;;;;;;19.32;91.23;101098.88;5076852;28;19919;-36
2021/09/10 01:49:51;;;;;;;;;;;;;;;19.44;89.88;101096.63;5076250;28;20462;-36
2021/09/10 01:52:16;;;;;;;12.38;10.10;;;;;;;19.37;90.91;101099.66;5075706;28;20378;-36
2021/09/10 01:54:42;;;;;;;13.07;10.18;;;;;;;19.21;91.50;101089.91;5076244;28;20034;-36
2021/09/10 01:57:07;;;;;;;;;;;;;;;19.39;89.67;101099.41;5076384;28;20048;-36
2021/09/10 01:59:32;;;;;;;11.90;9.80;;;;;;;19.20;91.42;101105.53;5075894;28;20276;-36
2021/09/10 02:01:58;;;;;;;;;;;;;;;19.32;89.83;101107.09;5076366;28;20032;-36
2021/09/10 02:04:23;;;;;;;12.65;9.82;;;;;;;19.13;90.98;101106.94;5076224;28;19908;-36
2021/09/10 02:06:48;;;;;;;11.65;9.52;;;;;;;19.06;91.94;101096.28;5076023;28;20025;-36
2021/09/10 02:09:14;;;;;;;;;;;;;;;19.18;89.74;101107.75;5076125;28;20033;-36
2021/09/10 02:11:39;;;;;;;11.27;10.18;;;;;;;18.98;91.60;101091.38;5075326;28;19904;-36
2021/09/10 02:14:05;;;;;;;;;;;;;;;19.19;89.83;101109.38;5076022;28;20024;-45
2021/09/10 02:16:30;;;;;;;12.65;9.50;;;;;;;19.09;91.32;101105.88;5075359;28;20255;-36
2021/09/10 02:18:56;;;;;;;;;;;;;;;19.18;89.70;101105.00;5075715;28;20044;-36
2021/09/10 02:21:21;;;;;;;13.73;10.10;;;;;;;19.00;91.71;101100.16;5075676;28;19905;-36
2021/09/10 02:23:46;;;;;;;;;;;;;;;19.13;89.77;101113.25;5075752;28;20269;-36
2021/09/10 02:26:11;;;;;;;12.40;9.67;;;;;;;18.97;91.74;101108.94;5076046;28;19908;-36
2021/09/10 02:28:37;;;;;;;;;;;;;;;19.07;89.84;101103.41;5075813;28;20309;-36
2021/09/10 02:31:03;;;;;;;10.93;9.80;;;;;;;18.88;91.65;101094.16;5075854;28;19973;-36
2021/09/10 02:33:28;;;;;;;12.57;9.82;;;;;;;18.90;92.22;101105.69;5074957;28;20498;-35
2021/09/10 02:35:54;;;;;;;;;;;;;;;19.02;90.17;101111.66;5076013;28;20033;-36
2021/09/10 02:38:20;;;;;;;11.13;8.88;;;;;;;18.91;91.39;101110.06;5075222;28;19998;-35
2021/09/10 02:40:46;;;;;;;11.02;9.63;;;;;;;18.92;91.46;101114.44;5074314;28;20121;-36
2021/09/10 02:43:11;;;;;;;11.45;10.07;;;;;;;18.81;92.07;101110.91;5075161;28;20050;-36
2021/09/10 02:45:36;;;;;;;;;;;;;;;18.95;90.09;101113.88;5076465;28;20044;-36
2021/09/10 02:48:02;;;;;;;10.35;9.40;;;;;;;18.73;91.86;101112.31;5074838;28;20001;-36
2021/09/10 02:50:27;;;;;;;;;;;;;;;18.88;90.36;101105.13;5075391;28;20375;-36
2021/09/10 02:52:52;;;;;;;12.30;9.10;;;;;;;18.75;92.22;101101.09;5075139;28;20029;-40
2021/09/10 02:55:18;;;;;;;;;;;;;;;18.85;90.52;101103.78;5075375;28;20274;-36
2021/09/10 02:57:43;;;;;;;11.02;9.23;;;;;;;18.63;91.93;101093.13;5074789;28;20011;-36
2021/09/10 03:00:09;;;;;;;12.32;9.65;;;;;;;18.70;92.48;101112.88;5075400;28;20029;-36
2021/09/10 03:02:34;;;;;;;;;;;;;;;18.80;90.91;101111.22;5075825;28;20025;-36
2021/09/10 03:04:59;;;;;;;10.13;8.73;;;;;;;18.66;92.30;101106.28;5074510;28;19952;-36
2021/09/10 03:07:25;;;;;;;10.00;9.00;;;;;;;18.68;92.63;101103.25;5073428;28;20055;-36
2021/09/10 03:09:50;;;;;;;;;;;;;;;18.76;91.15;101103.53;5075045;28;20027;-37
2021/09/10 03:12:15;;;;;;;11.03;9.17;;;;;;;18.65;92.50;101099.16;5074728;28;20012;-36
2021/09/10 03:14:41;;;;;;;;;;;;;;;18.75;90.99;101101.09;5074950;28;20321;-36
2021/09/10 03:17:06;;;;;;;11.20;9.10;;;;;;;18.62;92.69;101096.97;5074715;28;20264;-42
2021/09/10 03:19:31;;;;;;;;;;;;;;;18.69;90.85;101108.50;5074511;28;20483;-36
2021/09/10 03:21:56;;;;;;;10.00;9.00;;;;;;;18.49;92.22;101098.38;5074925;28;19904;-40
2021/09/10 03:24:22;;;;;;;;;;;;;;;18.64;91.59;101100.28;5074713;28;20282;-36
2021/09/10 03:26:48;;;;;;;10.93;9.83;;;;;;;18.41;92.82;101088.00;5074760;28;19935;-36
2021/09/10 03:29:13;;;;;;;;;;;;;;;18.63;91.56;101101.34;5073466;28;20318;-36
2021/09/10 03:31:40;;;;;;;11.43;8.80;;;;;;;18.54;93.11;101105.75;5073905;28;19947;-36
2021/09/10 03:34:05;;;;;;;11.25;8.82;;;;;;;18.53;93.31;101110.41;5074578;28;20036;-35
2021/09/10 03:36:31;;;;;;;;;;;;;;;18.64;92.28;101104.91;5074079;28;20050;-36
2021/09/10 03:38:56;;;;;;;13.32;9.73;;;;;;;18.51;93.72;101100.84;5073869;28;19931;-36
2021/09/10 03:41:21;;;;;;;;;;;;;;;18.63;92.28;101103.28;5074669;28;20031;-36
2021/09/10 03:43:52;;;;;;;13.68;10.20;;;;;;;18.56;93.17;101102.75;5073855;28;20352;-36
2021/09/10 03:46:18;;;;;;;11.20;9.35;;;;;;;18.55;93.31;101099.19;5074503;28;20052;-36
2021/09/10 03:48:43;;;;;;;;;;;;;;;18.65;92.13;101101.09;5074902;28;20407;-36
2021/09/10 03:51:09;;;;;;;11.37;9.70;;;;;;;18.57;93.52;101101.66;5073880;28;19904;-36
2021/09/10 03:53:34;;;;;;;;;;;;;;;18.66;91.78;101102.72;5074039;28;20746;-36
2021/09/10 03:55:59;;;;;;;9.80;8.85;;;;;;;18.55;93.45;101101.13;5073888;28;19904;-36
2021/09/10 03:58:24;;;;;;;;;;;;;;;18.63;92.13;101109.56;5074237;28;20417;-36
2021/09/10 04:00:50;;;;;;;10.83;9.07;;;;;;;18.50;93.00;101088.25;5073164;28;19904;-36
2021/09/10 04:03:15;;;;;;;;;;;;;;;18.65;91.77;101101.91;5074161;28;20071;-36
2021/09/10 04:05:40;;;;;;;10.23;9.00;;;;;;;18.50;93.07;101093.72;5073700;28;19908;-36
2021/09/10 04:08:06;;;;;;;;;;;;;;;18.66;91.56;101109.03;5073790;28;20016;-36
2021/09/10 04:10:31;;;;;;;9.85;8.68;;;;;;;18.64;92.44;101102.16;5073925;28;19904;-36
2021/09/10 04:12:56;;;;;;;;;;;;;;;18.71;91.18;101106.28;5074052;28;20449;-36
2021/09/10 04:15:22;;;;;;;14.17;9.17;;;;;;;18.62;92.75;101101.63;5073846;28;19904;-36
2021/09/10 04:17:47;;;;;;;;;;;;;;;18.71;91.13;101109.03;5074122;28;20027;-36
2021/09/10 04:20:13;;;;;;;12.40;10.05;;;;;;;18.66;92.21;101105.47;5073271;28;19911;-36
2021/09/10 04:22:39;;;;;;;;;;;;;;;18.74;91.09;101111.22;5073675;28;20457;-36
2021/09/10 04:25:05;;;;;;;10.65;9.40;;;;;;;18.53;92.11;101083.03;5073163;28;19959;-35
2021/09/10 04:27:30;;;;;;;;;;;;;;;18.71;91.13;101100.81;5072998;28;20364;-36
2021/09/10 04:29:57;;;;;;;10.25;9.23;;;;;;;18.66;91.90;101102.72;5073088;28;19904;-35
2021/09/10 04:32:22;;;;;;;14.23;9.27;;;;;;;18.61;91.92;101098.06;5073461;28;20146;-36
2021/09/10 04:34:48;;;;;;;;;;;;;;;18.70;90.90;101104.66;5073489;28;20476;-36
2021/09/10 04:37:14;;;;;;;11.52;9.13;;;;;;;18.58;92.10;101101.38;5073512;28;19911;-36
2021/09/10 04:39:39;;;;;;;;;;;;;;;18.66;90.78;101092.59;5073236;28;20024;-35
2021/09/10 04:42:04;;;;;;;12.27;9.50;;;;;;;18.43;92.31;101082.25;5073096;28;19911;-35
2021/09/10 04:44:30;;;;;;;;;;;;;;;18.60;90.91;101099.19;5073722;28;20049;-37
2021/09/10 04:46:55;;;;;;;11.18;9.25;;;;;;;18.51;92.27;101103.59;5072873;28;19912;-36
2021/09/10 04:49:20;;;;;;;;;;;;;;;18.56;91.30;101103.56;5073400;28;20058;-36
2021/09/10 04:51:45;;;;;;;10.63;9.52;;;;;;;18.36;92.52;101095.41;5073440;28;20016;-35
2021/09/10 04:54:14;;;;;;;;;;;;;;;18.46;91.38;101095.38;5073544;28;20036;-35
2021/09/10 04:56:41;;;;;;;11.10;10.00;;;;;;;18.30;92.77;101082.81;5073039;28;20367;-36
2021/09/10 04:59:06;;;;;;;12.02;9.93;;;;;;;18.27;93.05;101109.66;5072801;28;20036;-36
2021/09/10 05:01:32;;;;;;;;;;;;;;;18.41;91.67;101106.34;5073571;28;20108;-36
2021/09/10 05:03:58;;;;;;;11.60;9.88;;;;;;;18.30;92.91;101112.91;5072941;28;19908;-36
2021/09/10 05:06:23;;;;;;;;;;;;;;;18.40;91.55;101108.28;5073305;28;20091;-36
2021/09/10 05:08:48;;;;;;;11.03;9.93;;;;;;;18.31;92.83;101112.66;5072760;28;20007;-36
2021/09/10 05:11:13;;;;;;;;;;;;;;;18.41;91.34;101120.03;5073534;28;20273;-36
2021/09/10 05:13:39;;;;;;;12.23;10.20;;;;;;;18.32;93.60;101118.97;5072732;28;19908;-36
2021/09/10 05:16:04;;;;;;;;;;;;;;;18.42;91.79;101108.81;5073633;28;20258;-36
2021/09/10 05:18:29;;;;;;;13.43;10.25;;;;;;;18.34;93.36;101111.28;5072629;28;19911;-36
2021/09/10 05:20:55;;;;;;;;;;;;;;;18.46;91.91;101112.63;5073587;28;20044;-36
2021/09/10 05:23:20;;;;;;;12.02;9.30;;;;;;;18.42;92.85;101125.22;5088861;28;19943;-36
2021/09/10 05:25:45;;;;;;;;;;;;;;;18.52;91.75;101116.19;5073082;28;20038;-36
2021/09/10 05:28:10;;;;;;;11.93;10.53;;;;;;;18.37;93.44;101116.22;5072904;28;19908;-36
2021/09/10 05:30:36;;;;;;;;;;;;;;;18.55;91.81;101121.09;5073230;28;20266;-36
2021/09/10 05:33:01;;;;;;;14.10;9.23;;;;;;;18.54;93.26;101116.69;5072286;28;19971;-36
2021/09/10 05:35:26;;;;;;;;;;;;;;;18.62;92.29;101124.38;5073324;28;20464;-36
2021/09/10 05:37:51;;;;;;;18.63;9.98;;;;;;;18.64;92.89;101124.91;5073184;28;20307;-36
2021/09/10 05:40:17;;;;;;;;;;;;;;;18.72;92.02;101131.75;5073066;28;20020;-36
2021/09/10 05:42:43;;;;;;;15.30;9.75;;;;;;;18.67;93.11;101131.75;5073395;28;19908;-36
2021/09/10 05:45:08;;;;;;;;;;;;;;;18.83;91.80;101140.75;5073003;28;20082;-36
2021/09/10 05:47:34;;;;;;;14.18;9.50;;;;;;;18.77;92.41;101131.75;5072511;28;19908;-36
2021/09/10 05:49:59;;;;;;;;;;;;;;;18.94;91.44;101143.22;5073731;28;20031;-36
2021/09/10 05:52:25;;;;;;;11.60;9.38;;;;;;;18.92;92.08;101141.84;5074505;28;19915;-36
2021/09/10 05:54:50;;;;;;;;;;;;;;;19.03;91.33;101146.16;5076450;28;20094;-36
2021/09/10 05:57:16;;;;;;;12.60;9.43;;;;;;;18.85;91.88;101141.31;5076455;28;19908;-35
2021/09/10 05:59:41;;;;;;;12.80;9.43;;;;;;;18.88;92.14;101152.53;5076818;28;20462;-36
2021/09/10 06:02:06;;;;;;;;;;;;;;;18.98;90.93;101154.41;5076700;28;20031;-36
2021/09/10 06:04:32;;;;;;;11.30;8.52;;;;;;;18.92;91.54;101159.09;5076140;28;19950;-36
2021/09/10 06:06:58;;;;;;;;;;;;;;;19.01;90.66;101159.34;5076927;28;20028;-36
2021/09/10 06:09:23;;;;;;;10.02;8.23;;;;;;;18.82;91.37;101147.34;5075796;28;20264;-36
2021/09/10 06:11:48;;;;;;;;;;;;;;;18.96;90.65;101162.09;5075985;28;20024;-36
2021/09/10 06:14:14;;;;;;;13.25;8.20;;;;;;;18.88;91.80;101162.66;5075749;28;20048;-36
2021/09/10 06:16:39;;;;;;;;;;;;;;;18.96;91.04;101167.59;5076487;28;20027;-36
2021/09/10 06:19:05;;;;;;;11.18;7.90;;;;;;;18.85;91.76;101169.53;5075845;28;20348;-36
2021/09/10 06:21:30;;;;;;;12.45;7.93;;;;;;;18.84;92.02;101165.16;5075846;28;20036;-35
2021/09/10 06:23:55;;;;;;;;;;;;;;;18.93;90.94;101163.47;5076270;28;20021;-36
2021/09/10 06:26:24;;;;;;;11.70;8.25;;;;;;;18.91;91.24;101173.91;5075525;28;19915;-36
2021/09/10 06:28:50;;;;;;;12.15;7.78;;;;;;;18.94;91.26;101169.78;5075466;28;20025;-36
2021/09/10 06:31:15;;;;;;;;;;;;;;;19.00;90.28;101171.41;5076509;28;20496;-36
2021/09/10 06:33:41;;;;;;;9.35;8.00;;;;;;;18.83;91.32;101159.94;5075954;28;19908;-36
2021/09/10 06:36:06;;;;;;;;;;;;;;;18.98;90.78;101170.84;5076335;28;20338;-36
2021/09/10 06:38:32;;;;;;;11.05;8.35;;;;;;;18.90;91.50;101179.66;5075230;28;19915;-36
2021/09/10 06:40:57;;;;;;;;;;;;;;;19.02;90.88;101188.38;5075674;28;20028;-36
2021/09/10 06:43:22;;;;;;;10.10;8.77;;;;;;;18.98;91.15;101188.13;5074754;28;19908;-35
2021/09/10 06:45:48;;;;;;;;;;;;;;;19.04;90.32;101188.94;5076470;28;20130;-36
2021/09/10 06:48:13;;;;;;;10.13;7.75;;;;;;;18.96;90.78;101195.81;5075148;28;20032;-35
2021/09/10 06:50:39;;;;;;;;;;;;;;;19.10;90.16;101197.97;5076312;28;20029;-35
2021/09/10 06:53:04;;;;;;;13.20;8.18;;;;;;;19.01;90.86;101198.53;5075381;28;19969;-35
2021/09/10 06:55:30;;;;;;;;;;;;;;;19.11;90.26;101197.69;5075427;28;20036;-36
2021/09/10 06:57:55;;;;;;;12.02;7.68;;;;;;;19.07;90.83;101196.59;5075290;28;20405;-36
2021/09/10 07:00:21;;;;;;;9.90;8.07;;;;;;;19.08;90.89;101205.63;5074680;28;20170;-36
2021/09/10 07:02:46;;;;;;;;;;;;;;;19.18;90.19;101209.19;5075817;28;20345;-35
2021/09/10 07:05:12;;;;;;;10.98;7.85;;;;;;;19.09;90.90;101205.38;5074743;28;19930;-36
2021/09/10 07:07:37;;;;;;;;;;;;;;;19.19;89.96;101210.00;5075469;28;20462;-36
2021/09/10 07:10:03;;;;;;;9.82;7.53;;;;;;;19.14;90.72;101208.09;5074781;28;19912;-36
2021/09/10 07:12:28;;;;;;;;;;;;;;;19.27;89.88;101202.00;5073701;28;20411;-36
2021/09/10 07:14:54;;;;;;;9.60;7.30;;;;;;;19.27;90.29;101202.00;5075254;28;19904;-36
2021/09/10 07:17:20;;;;;;;;;;;;;;;19.40;89.53;101213.47;5075517;28;20016;-35
2021/09/10 07:19:46;;;;;;;13.23;7.90;;;;;;;19.37;89.70;101208.53;5074218;28;19911;-35
2021/09/10 07:22:12;;;;;;;;;;;;;;;19.45;89.19;101221.66;5075154;28;20020;-36
2021/09/10 07:24:37;;;;;;;11.20;8.20;;;;;;;19.29;89.77;101202.53;5074911;28;20366;-36
2021/09/10 07:27:03;;;;;;;;;;;;;;;19.51;89.19;101226.84;5074607;28;20035;-35
2021/09/10 07:29:28;;;;;;;9.75;7.00;;;;;;;19.49;89.36;101228.25;5074741;28;19927;-36
2021/09/10 07:31:55;;;;;;;;;;;;;;;19.60;88.75;101232.59;5073140;28;20044;-36
2021/09/10 07:34:20;;;;;;;10.93;8.43;;;;;;;19.54;89.16;101230.97;5074459;28;20299;-36
2021/09/10 07:36:49;;;;;;;;;;;;;;;19.67;88.40;101232.31;5074730;28;20024;-36
2021/09/10 07:39:19;;;;;;;10.55;8.23;;;;;;;19.56;88.98;101236.97;5073019;28;19908;-35
2021/09/10 07:41:45;;;;;;;11.95;8.93;;;;;;;19.49;88.64;101225.50;5074638;28;20032;-36
2021/09/10 07:44:13;;;;;;;11.75;8.88;;;;;;;19.58;88.62;101234.78;5073949;28;20160;-36
2021/09/10 07:46:40;;;;;;;10.52;8.80;;;;;;;19.58;88.52;101244.94;5073702;28;20153;-36
2021/09/10 07:49:07;;;;;;;11.45;8.13;;;;;;;19.54;88.45;101244.66;5073796;28;20020;-35
2021/09/10 07:51:32;;;;;;;16.95;9.27;;;;;;;19.47;88.80;101231.28;5074028;28;20024;-35
2021/09/10 07:53:58;;;;;;;;;;;;;;;19.66;88.32;101255.34;5073841;28;20384;-35
2021/09/10 07:56:23;;;;;;;10.85;8.00;;;;;;;19.60;88.87;101249.06;5074392;28;19915;-35
2021/09/10 07:58:48;;;;;;;;;;;;;;;19.76;88.25;101258.03;5074016;28;20338;-35
2021/09/10 08:01:14;;;;;;;11.82;7.68;;;;;;;19.73;87.56;101250.38;5074186;28;19904;-35
2021/09/10 08:03:39;;;;;;;;;;;;;;;19.89;87.49;101262.09;5073662;28;20131;-36
2021/09/10 08:06:05;;;;;;;12.30;7.35;;;;;;;19.79;87.58;101258.28;5073812;28;19994;-36
2021/09/10 08:08:30;;;;;;;;;;;;;;;19.98;87.23;101263.13;5074150;28;20048;-35
2021/09/10 08:10:56;;;;;;;9.95;7.15;;;;;;;19.90;87.16;101266.47;5073418;28;20228;-36
2021/09/10 08:13:21;;;;;;;10.32;6.68;;;;;;;19.95;86.78;101264.50;5073730;28;20025;-36
2021/09/10 08:15:46;;;;;;;11.13;7.68;;;;;;;19.85;86.58;101244.53;5073477;28;20034;-36
2021/09/10 08:18:12;;;;;;;12.15;7.60;;;;;;;20.06;86.44;101262.53;5073362;28;20032;-35
2021/09/10 08:20:37;;;;;;;9.38;6.97;;;;;;;20.08;86.57;101249.34;5073480;28;20411;-36
2021/09/10 08:23:03;;;;;;;;;;;;;;;20.30;86.45;101260.72;5072701;28;20021;-36
2021/09/10 08:25:28;;;;;;;12.32;8.02;;;;;;;20.23;85.31;101246.47;5074085;28;20011;-35
2021/09/10 08:27:53;;;;;;;;;;;;;;;20.44;85.63;101262.78;5073990;28;20048;-35
2021/09/10 08:30:19;;;;;;;9.13;7.50;;;;;;;20.37;85.43;101256.81;5073768;28;19905;-36
2021/09/10 08:32:44;;;;;;;;;;;;;;;20.53;85.54;101261.13;5073636;28;20254;-36
2021/09/10 08:35:10;;;;;;;9.50;7.35;;;;;;;20.53;85.07;101259.19;5073358;28;19991;-36
2021/09/10 08:37:35;;;;;;;;;;;;;;;20.67;85.24;101256.59;5073830;28;20025;-36
2021/09/10 08:40:01;;;;;;;9.20;7.47;;;;;;;20.61;84.93;101257.75;5072544;28;19904;-35
2021/09/10 08:42:27;;;;;;;9.70;7.25;;;;;;;20.65;84.14;101247.84;5073345;28;20247;-36
2021/09/10 08:44:53;;;;;;;;;;;;;;;20.87;84.53;101257.50;5073520;28;20044;-36
2021/09/10 08:47:18;;;;;;;13.50;7.28;;;;;;;20.82;82.65;101259.19;5072853;28;19939;-36
2021/09/10 08:49:45;;;;;;;10.75;7.50;;;;;;;20.74;82.56;101246.09;5073269;28;20067;-36
2021/09/10 08:52:11;;;;;;;9.73;7.35;;;;;;;20.89;82.28;101258.06;5073279;28;20028;-36
2021/09/10 08:54:37;;;;;;;9.57;6.90;;;;;;;20.97;82.32;101257.41;5073085;28;20101;-35
2021/09/10 08:57:03;;;;;;;12.65;7.38;;;;;;;21.06;81.66;101266.66;5071813;28;20036;-36
2021/09/10 08:59:29;;;;;;;9.75;6.90;;;;;;;21.05;81.46;101246.59;5072460;28;20067;-36
2021/09/10 09:01:56;;;;;;;9.00;7.25;;;;;;;21.16;81.15;101265.72;5073730;28;20087;-35
2021/09/10 09:04:23;;;;;;;8.90;5.95;;;;;;;21.24;81.00;101254.91;5072827;28;20359;-36
2021/09/10 09:06:51;;;;;;;9.77;7.10;;;;;;;21.34;80.11;101268.59;5071826;28;20550;-36
2021/09/10 09:09:37;;;;;;;9.68;6.75;;;;;;;21.50;80.88;101271.16;5072777;28;20396;-36
2021/09/10 09:12:22;;;;;;;10.27;6.78;;;;;;;21.51;80.33;101270.03;5073315;28;20025;-36
2021/09/10 09:14:49;;;;;;;7.68;6.38;;;;;;;21.62;79.65;101268.81;5073373;28;20111;-36
2021/09/10 09:17:39;;;;;;;10.50;6.90;;;;;;;21.70;80.06;101261.81;5072749;28;20502;-35
2021/09/10 09:20:32;;;;;;;13.82;7.22;;;;;;;21.71;79.69;101253.25;5011402;28;20120;-36
2021/09/10 09:23:04;;;;;;;21.67;7.40;;;;;;;21.76;79.08;101272.44;5010466;28;20034;-36
2021/09/10 09:25:41;;;;;;;12.88;7.22;;;;;;;21.76;78.85;101282.63;5010763;28;20069;-36
2021/09/10 09:28:30;;;;;;;10.82;7.05;;;;;;;21.64;79.07;101263.00;5014204;28;20112;-35
2021/09/10 09:31:00;;;;;;;10.25;7.13;;;;;;;21.78;79.18;101280.44;5014918;28;20038;-36
2021/09/10 09:33:30;;;;;;;8.98;6.50;;;;;;;21.80;78.46;101275.44;5014644;28;20030;-36
2021/09/10 09:35:57;;;;;;;14.15;6.70;;;;;;;21.91;79.08;101271.44;5014569;28;20120;-36
2021/09/10 09:38:32;;;;;;;11.90;6.65;;;;;;;22.10;77.62;101285.19;5014837;28;20390;-36
2021/09/10 09:41:00;;;;;;;11.90;6.80;;;;;;;22.20;76.59;101276.81;5014748;28;20418;-36
2021/09/10 09:43:31;;;;;;;8.45;5.70;;;;;;;22.30;76.57;101293.22;4997601;28;20030;-36
2021/09/10 09:45:57;;;;;;;12.75;6.15;;;;;;;22.34;76.62;101285.97;5014406;28;20124;-36
2021/09/10 09:48:27;;;;;;;19.55;6.63;;;;;;;22.32;76.74;101296.47;5013857;28;20108;-36
2021/09/10 09:50:54;;;;;;;8.13;6.28;;;;;;;22.27;75.81;101293.78;5013856;28;20133;-36
2021/09/10 09:53:22;;;;;;;9.07;6.10;;;;;;;22.27;76.85;101288.28;5013736;28;20026;-36
2021/09/10 09:55:49;;;;;;;10.02;5.53;;;;;;;22.31;75.96;101286.56;5013801;28;20044;-36
2021/09/10 09:58:15;;;;;;;6.90;5.43;;;;;;;22.36;75.42;101294.75;5074968;28;20032;-36
2021/09/10 10:00:43;;;;;;;8.25;5.45;;;;;;;22.45;76.00;101283.03;5076521;28;20055;-36
2021/09/10 10:03:09;;;;;;;8.93;5.53;;;;;;;22.53;75.44;101290.63;5074301;28;20037;-36
2021/09/10 10:06:01;;;;;;;7.13;5.00;;;;;;;22.64;75.30;101294.84;5075322;28;20029;-36
2021/09/10 10:08:29;;;;;;;10.55;5.63;;;;;;;22.52;74.46;101291.75;5014030;28;20052;-36
2021/09/10 10:11:05;;;;;;;7.90;5.05;;;;;;;22.64;75.11;101300.34;5013569;28;20034;-35
2021/09/10 10:13:33;;;;;;;8.13;5.20;;;;;;;22.74;74.94;101297.47;5013697;28;20038;-36
2021/09/10 10:15:58;;;;;;;12.20;5.18;;;;;;;22.96;74.35;101294.06;5013435;28;20038;-36
2021/09/10 10:18:44;;;;;;;8.50;5.45;;;;;;;23.07;73.78;101295.50;5013318;28;20038;-36
2021/09/10 10:21:11;;;;;;;6.27;4.80;;;;;;;23.29;72.82;101285.72;5013314;28;20033;-36
2021/09/10 10:23:45;;;;;;;8.23;5.63;;;;;;;23.46;72.26;101287.88;5013470;28;20029;-36
2021/09/10 10:26:15;;;;;;;8.52;5.78;;;;;;;23.52;70.84;101278.34;5013252;28;20080;-36
2021/09/10 10:28:53;;;;;;;7.65;5.22;;;;;;;23.56;71.83;101280.19;5013713;28;20417;-36
2021/09/10 10:31:38;;;;;;;5.95;4.80;;;;;;;23.66;70.48;101278.38;5013128;28;20026;-36
2021/09/10 10:34:06;;;;;;;7.57;5.30;;;;;;;23.70;70.18;101277.44;5013167;28;20397;-36
2021/09/10 10:36:32;;;;;;;7.32;5.28;;;;;;;24.11;70.33;101276.56;5013800;28;20038;-36
2021/09/10 10:39:12;;;;;;;7.55;4.78;;;;;;;24.42;69.49;101257.31;5012792;28;20034;-36
2021/09/10 10:41:48;;;;;;;10.73;5.45;;;;;;;24.57;68.14;101272.72;5012984;28;20075;-36
2021/09/10 10:44:32;;;;;;;;;;;;;;;24.70;68.71;101274.59;5013646;28;20152;-36
2021/09/10 10:47:04;;;;;;;8.48;5.00;;;;;;;24.21;67.95;101254.22;5075494;28;20217;-36
2021/09/10 10:49:32;;;;;;;9.13;5.28;;;;;;;24.03;68.78;101260.72;5074777;28;20059;-36
2021/09/10 10:51:57;;;;;;;10.15;4.93;;;;;;;23.86;68.82;101258.59;5075161;28;20044;-36
2021/09/10 10:54:29;;;;;;;5.85;4.55;;;;;;;23.63;68.31;101261.31;5074845;28;20020;-36
2021/09/10 10:57:00;;;;;;;7.10;4.00;;;;;;;23.51;69.72;101251.88;5075098;28;20021;-36
2021/09/10 10:59:26;;;;;;;13.85;4.82;;;;;;;23.37;70.46;101241.66;5074487;28;20461;-36
2021/09/10 11:04:46;;;;;;;8.02;5.05;;;;;;;23.21;70.05;101240.34;5074548;28;20445;-36
2021/09/10 11:07:12;;;;;;;9.82;5.25;;;;;;;23.14;70.96;101242.72;5074595;28;20031;-36
2021/09/10 11:09:38;;;;;;;7.25;4.47;;;;;;;23.05;70.76;101242.59;5074812;28;20029;-36
2021/09/10 11:12:03;;;;;;;6.70;4.20;;;;;;;22.90;72.10;101239.31;5074627;28;20468;-36
2021/09/10 11:14:30;;;;;;;9.55;4.45;;;;;;;22.80;72.61;101246.63;5074399;28;20127;-36
2021/09/10 11:17:11;;;;;;;6.50;4.65;;;;;;;22.67;73.12;101236.38;5074237;28;20492;-36
2021/09/10 11:19:37;;;;;;;10.35;5.05;;;;;;;22.62;75.14;101239.22;5074374;28;20130;-36
2021/09/10 11:22:04;;;;;;;8.73;6.25;;;;;;;22.55;75.83;101236.06;5074644;28;20053;-36
2021/09/10 11:24:30;;;;;;;10.88;6.95;;;;;;;22.42;77.61;101251.41;5073832;28;20020;-36
2021/09/10 11:26:55;;;;;;;9.80;6.75;;;;;;;22.25;79.16;101253.88;5074328;28;20037;-36
2021/09/10 11:29:20;;;;;;;12.05;6.68;;;;;;;22.16;80.27;101267.53;5074161;28;20016;-36
2021/09/10 11:31:46;;;;;;;11.38;7.03;;;;;;;21.77;82.66;101257.59;5074294;28;20425;-36
2021/09/10 11:34:32;;;;;;;12.48;7.25;;;;;;;21.60;83.64;101262.75;5073736;28;20028;-36
2021/09/10 11:37:03;;;;;;;9.98;5.90;;;;;;;21.32;84.93;101273.53;5074902;28;20036;-36
2021/09/10 11:39:30;;;;;;;8.05;5.53;;;;;;;21.17;85.21;101261.88;5073994;28;20024;-36
2021/09/10 11:41:55;;;;;;;8.82;5.28;;;;;;;21.14;86.71;101266.03;5074524;28;20048;-36